This is the latest recevied weather packets stored in our database for station/object DO1BDB-12. If no packets are shown the sender has not sent any weather packets the latest 10 day(s).
| Time | Temp. | Humidity | Pressure | Rain* | Wind** | Luminosity | Snow |
|---|---|---|---|---|---|---|---|
| 1777190613 | 25° C | 21% | 102.5 hPa | - | - | - | - |
| 1777190547 | 23.33° C | 21% | 102.5 hPa | - | - | - | - |
| 1777190482 | 23.33° C | 22% | 102.5 hPa | - | - | - | - |
| 1777190415 | 22.78° C | 23% | 102.5 hPa | - | - | - | - |
| 1777190350 | 22.78° C | 21% | 102.5 hPa | - | - | - | - |
| 1777190284 | 23.33° C | 23% | 102.5 hPa | - | - | - | - |
| 1777190218 | 23.33° C | 23% | 102.5 hPa | - | - | - | - |
| 1777190152 | 22.78° C | 22% | 102.5 hPa | - | - | - | - |
| 1777190086 | 22.78° C | 23% | 102.5 hPa | - | - | - | - |
| 1777190020 | 22.22° C | 22% | 102.5 hPa | - | - | - | - |
| 1777189954 | 24.44° C | 22% | 102.5 hPa | - | - | - | - |
| 1777189889 | 23.89° C | 22% | 102.5 hPa | - | - | - | - |
| 1777189823 | 23.33° C | 23% | 102.5 hPa | - | - | - | - |
| 1777189757 | 22.22° C | 23% | 102.5 hPa | - | - | - | - |
| 1777189691 | 22.22° C | 24% | 102.5 hPa | - | - | - | - |
| 1777189625 | 21.67° C | 24% | 102.5 hPa | - | - | - | - |
| 1777189559 | 22.22° C | 24% | 102.5 hPa | - | - | - | - |
| 1777189494 | 22.78° C | 24% | 102.5 hPa | - | - | - | - |
| 1777189428 | 20° C | 26% | 102.5 hPa | - | - | - | - |
| 1777189362 | 24.44° C | 22% | 102.4 hPa | - | - | - | - |
| 1777189296 | 23.33° C | 23% | 102.4 hPa | - | - | - | - |
| 1777189230 | 23.33° C | 22% | 102.4 hPa | - | - | - | - |
| 1777189164 | 22.22° C | 24% | 102.4 hPa | - | - | - | - |
| 1777189098 | 23.33° C | 23% | 102.4 hPa | - | - | - | - |
| 1777189033 | 22.78° C | 23% | 102.4 hPa | - | - | - | - |
* Rain since midnight (hover to see other rain measurements)
** Current wind speed in m/s (hover to see current wind gust speed)